Time;durP1;ratioP1;P1;durP2;ratioP2;P2;SDS_P1;SDS_P2;PMS_P1;PMS_P2;Temp;Humidity;BMP_temperature;BMP_pressure;BME280_temperature;BME280_humidity;BME280_pressure;Samples;Min_cycle;Max_cycle;Signal;HPM_P1;HPM_P2
2022/05/25 00:01:50;;;;;;;13.23;11.93;;;;;;;15.58;89.78;92697.75;5029522;28;20230;-84
2022/05/25 00:04:17;;;;;;;13.77;12.67;;;;;;;15.62;89.37;92696.81;5029590;28;20783;-82
2022/05/25 00:06:43;;;;;;;13.27;12.00;;;;;;;15.49;90.28;92700.34;5028859;28;20257;-82
2022/05/25 00:09:08;;;;;;;13.43;12.23;;;;;;;15.54;89.41;92702.06;5029827;28;20774;-83
2022/05/25 00:11:34;;;;;;;13.80;12.00;;;;;;;15.39;90.11;92697.22;5029319;28;20229;-82
2022/05/25 00:14:00;;;;;;;13.90;12.47;;;;;;;15.33;90.14;92680.75;5029166;28;20201;-82
2022/05/25 00:16:26;;;;;;;13.83;12.80;;;;;;;15.18;90.54;92672.50;5030391;28;20234;-82
2022/05/25 00:21:35;;;;;;;13.70;12.50;;;;;;;15.18;91.16;92699.59;5028215;28;20244;-82
2022/05/25 00:24:01;;;;;;;11.87;11.07;;;;;;;15.08;90.47;92676.19;5028794;28;20207;-82
2022/05/25 00:26:26;;;;;;;14.33;13.20;;;;;;;15.22;90.50;92710.28;5027757;28;20249;-83
2022/05/25 00:28:52;;;;;;;12.13;11.13;;;;;;;14.98;91.29;92684.34;5029861;28;20191;-82
2022/05/25 00:31:17;;;;;;;16.47;11.60;;;;;;;15.14;91.55;92709.16;5028519;28;20294;-83
2022/05/25 00:33:43;;;;;;;13.47;12.10;;;;;;;14.94;91.64;92698.41;5029884;28;20199;-82
2022/05/25 00:36:08;;;;;;;11.63;10.77;;;;;;;15.20;91.20;92701.91;5027776;28;20242;-82
2022/05/25 00:38:34;;;;;;;13.47;12.47;;;;;;;15.29;90.63;92700.09;5029696;28;20221;-81
2022/05/25 00:40:59;;;;;;;12.63;11.33;;;;;;;15.08;91.46;92691.19;5028628;28;20261;-84
2022/05/25 00:43:24;;;;;;;14.47;13.27;;;;;;;15.05;90.84;92678.66;5029433;28;20204;-81
2022/05/25 00:45:55;;;;;;;12.13;11.23;;;;;;;15.09;91.07;92690.09;5028786;28;20218;-82
2022/05/25 00:48:44;;;;;;;12.90;11.70;;;;;;;14.99;91.66;92703.53;5029413;28;20215;-83
2022/05/25 00:51:21;;;;;;;12.20;11.10;;;;;;;14.76;92.73;92688.88;5028900;28;20237;-82
2022/05/25 00:53:56;;;;;;;12.57;11.57;;;;;;;14.93;92.02;92699.47;5029272;28;20182;-83
2022/05/25 00:56:23;;;;;;;13.57;12.27;;;;;;;14.72;92.13;92675.56;5028713;28;20229;-82
2022/05/25 00:58:57;;;;;;;12.83;11.83;;;;;;;14.73;92.77;92692.88;5029536;28;20197;-83
2022/05/25 01:01:24;;;;;;;12.03;10.93;;;;;;;14.78;93.09;92694.59;5028876;28;20229;-82
2022/05/25 01:03:50;;;;;;;14.07;12.97;;;;;;;14.90;93.17;92713.22;5029792;28;20193;-81
2022/05/25 01:06:50;;;;;;;13.73;12.57;;;;;;;14.82;92.60;92703.44;5028958;28;20226;-82
2022/05/25 01:09:57;;;;;;;14.30;12.90;;;;;;;14.75;93.04;92703.88;5028574;28;21214;-83
2022/05/25 01:12:36;;;;;;;14.93;13.40;;;;;;;14.76;92.93;92717.78;5016096;28;20237;-82
2022/05/25 01:15:12;;;;;;;14.03;12.80;;;;;;;14.73;93.09;92697.34;5029061;28;20190;-82
2022/05/25 01:17:46;;;;;;;13.13;11.67;;;;;;;14.72;93.41;92722.09;5027472;28;20222;-83
2022/05/25 01:20:36;;;;;;;13.67;12.43;;;;;;;14.74;93.77;92723.31;5032672;28;20832;-82
2022/05/25 01:23:30;;;;;;;14.00;12.83;;;;;;;14.71;93.80;92731.06;5033509;28;20207;-83
2022/05/25 01:26:01;;;;;;;13.33;12.33;;;;;;;14.80;93.02;92724.00;5031563;28;20222;-82
2022/05/25 01:29:01;;;;;;;14.60;13.47;;;;;;;14.79;92.44;92723.22;5032368;28;20253;-83
2022/05/25 01:31:40;;;;;;;14.03;12.93;;;;;;;14.73;93.11;92723.63;5031397;28;20382;-82
2022/05/25 01:34:55;;;;;;;13.37;11.93;;;;;;;14.77;92.43;92722.72;5033035;28;20206;-83
2022/05/25 01:37:27;;;;;;;14.20;13.10;;;;;;;14.71;92.65;92728.44;5022787;28;20266;-82
2022/05/25 01:40:02;;;;;;;13.70;12.63;;;;;;;14.69;93.51;92733.19;5032773;28;20201;-82
2022/05/25 01:42:33;;;;;;;14.20;13.10;;;;;;;14.58;93.47;92730.06;5031304;28;20206;-83
2022/05/25 01:45:02;;;;;;;14.47;13.00;;;;;;;14.40;93.29;92692.38;5031788;28;20222;-82
2022/05/25 01:47:31;;;;;;;13.53;12.50;;;;;;;14.52;93.73;92735.72;5031525;28;20202;-82
2022/05/25 01:50:14;;;;;;;13.83;12.43;;;;;;;14.55;93.46;92732.50;5031283;28;20191;-82
2022/05/25 01:52:44;;;;;;;14.80;13.50;;;;;;;14.42;93.63;92711.25;5032131;28;20175;-82
2022/05/25 01:55:18;;;;;;;13.73;12.57;;;;;;;14.55;93.81;92733.28;5031675;28;20202;-82
2022/05/25 01:57:49;;;;;;;13.20;12.20;;;;;;;14.39;94.01;92714.47;5031433;28;20246;-81
2022/05/25 02:00:39;;;;;;;12.00;11.17;;;;;;;14.25;94.17;92724.25;5029042;28;20238;-83
2022/05/25 02:06:05;;;;;;;15.57;14.07;;;;;;;14.32;94.75;92745.63;5031745;28;20232;-82
2022/05/25 02:08:36;;;;;;;15.07;13.53;;;;;;;14.37;94.90;92745.50;5031011;28;20182;-82
2022/05/25 02:11:20;;;;;;;12.70;11.67;;;;;;;14.36;94.92;92753.69;5031541;28;21476;-81
2022/05/25 02:14:03;;;;;;;13.07;11.87;;;;;;;14.45;94.52;92750.06;5032075;28;20178;-82
2022/05/25 02:16:35;;;;;;;13.50;12.43;;;;;;;14.41;93.88;92743.81;5031087;28;20233;-83
2022/05/25 02:19:20;;;;;;;13.93;12.63;;;;;;;14.35;93.98;92750.28;5031772;28;20197;-82
2022/05/25 02:21:53;;;;;;;13.13;12.13;;;;;;;14.02;94.25;92714.75;5031683;28;20230;-82
2022/05/25 02:24:33;;;;;;;12.50;11.50;;;;;;;14.16;96.44;92754.88;5031797;28;20198;-83
2022/05/25 02:27:06;;;;;;;15.07;13.67;;;;;;;14.20;95.39;92753.22;5031236;28;20291;-82
2022/05/25 02:29:43;;;;;;;13.17;12.07;;;;;;;14.21;95.11;92754.75;5028606;28;20202;-81
2022/05/25 02:32:41;;;;;;;14.17;12.73;;;;;;;14.12;96.79;92756.53;5031245;28;20218;-83
2022/05/25 02:35:08;;;;;;;13.77;12.67;;;;;;;14.07;96.81;92769.00;5023830;28;20207;-82
2022/05/25 02:37:35;;;;;;;14.10;13.00;;;;;;;14.18;95.93;92772.94;5031277;28;20214;-82
2022/05/25 02:40:05;;;;;;;14.67;13.37;;;;;;;14.32;94.85;92766.63;5031011;28;20197;-82
2022/05/25 02:42:31;;;;;;;14.67;13.43;;;;;;;14.33;94.59;92767.41;5030312;28;20183;-82
2022/05/25 02:44:56;;;;;;;15.00;13.37;;;;;;;14.17;95.27;92777.44;5031584;28;20210;-82
2022/05/25 02:47:22;;;;;;;15.33;13.97;;;;;;;14.17;95.21;92769.56;5031011;28;20270;-83
2022/05/25 02:49:47;;;;;;;14.23;13.03;;;;;;;14.09;96.40;92791.25;5031928;28;20283;-86
2022/05/25 02:52:13;;;;;;;14.07;12.93;;;;;;;13.97;96.09;92759.50;5029518;28;20225;-85
2022/05/25 02:54:39;;;;;;;14.30;13.10;;;;;;;14.25;95.56;92783.88;5031205;28;20190;-87
2022/05/25 02:57:06;;;;;;;15.37;14.00;;;;;;;14.30;95.26;92789.78;5029995;28;20937;-83
2022/05/25 02:59:32;;;;;;;14.87;13.70;;;;;;;14.07;95.24;92763.75;5030064;28;20175;-82
2022/05/25 03:01:57;;;;;;;14.67;13.40;;;;;;;14.31;95.01;92791.34;5029375;28;20241;-82
2022/05/25 03:04:23;;;;;;;13.47;12.37;;;;;;;14.17;95.13;92782.69;5031620;28;20186;-82
2022/05/25 03:06:49;;;;;;;14.07;12.80;;;;;;;14.25;95.34;92789.91;5030700;28;20234;-83
2022/05/25 03:09:14;;;;;;;13.73;12.37;;;;;;;14.36;93.80;92793.09;5031101;28;20187;-84
2022/05/25 03:11:41;;;;;;;14.60;13.40;;;;;;;14.43;93.52;92772.41;5030573;28;20222;-81
2022/05/25 03:14:06;;;;;;;14.67;13.27;;;;;;;14.59;93.39;92804.38;5030579;28;20193;-82
2022/05/25 03:16:33;;;;;;;14.60;13.23;;;;;;;14.63;93.02;92807.97;5030035;28;20222;-82
2022/05/25 03:18:58;;;;;;;15.00;13.70;;;;;;;14.72;92.07;92795.66;5030790;28;21051;-82
2022/05/25 03:21:25;;;;;;;15.40;13.97;;;;;;;14.79;92.01;92812.56;5027714;28;20226;-82
2022/05/25 03:23:51;;;;;;;14.17;12.87;;;;;;;14.86;91.35;92789.28;5030777;28;20186;-81
2022/05/25 03:26:17;;;;;;;15.30;13.93;;;;;;;14.94;91.40;92801.69;5030452;28;20229;-83
2022/05/25 03:28:42;;;;;;;12.70;11.70;;;;;;;15.32;88.98;92809.97;5031249;28;20191;-82
2022/05/25 03:31:08;;;;;;;13.43;12.40;;;;;;;15.46;88.12;92805.41;5030502;28;20245;-83
2022/05/25 03:33:33;;;;;;;13.20;12.10;;;;;;;15.69;86.29;92804.25;5030772;28;20217;-82
2022/05/25 03:35:59;;;;;;;13.93;12.10;;;;;;;15.83;85.53;92823.34;5029868;28;20279;-84
2022/05/25 03:38:27;;;;;;;13.67;12.67;;;;;;;15.82;86.13;92829.72;5030229;28;20201;-82
2022/05/25 03:40:53;;;;;;;13.83;12.83;;;;;;;15.82;85.50;92827.09;5027413;28;20249;-80
2022/05/25 03:43:19;;;;;;;13.70;12.33;;;;;;;15.38;86.55;92778.00;5028607;28;20207;-78
2022/05/25 03:45:47;;;;;;;13.53;12.43;;;;;;;15.68;86.60;92829.03;5027467;28;20234;-80
2022/05/25 03:48:14;;;;;;;14.43;13.07;;;;;;;15.60;87.17;92825.31;5029527;28;20218;-80
2022/05/25 03:50:41;;;;;;;13.27;12.07;;;;;;;15.81;86.75;92844.72;5028475;28;20249;-81
2022/05/25 03:53:08;;;;;;;14.47;13.27;;;;;;;15.90;86.63;92845.56;5027993;28;20217;-80
2022/05/25 03:55:35;;;;;;;16.53;14.70;;;;;;;16.14;85.69;92839.88;5027555;28;20260;-80
2022/05/25 03:58:02;;;;;;;14.57;13.17;;;;;;;16.06;85.52;92840.66;5028452;28;20194;-78
2022/05/25 04:00:28;;;;;;;16.03;13.23;;;;;;;16.30;84.92;92851.53;5028189;28;20230;-82
2022/05/25 04:02:56;;;;;;;16.03;14.47;;;;;;;16.61;83.51;92856.72;5029257;28;20223;-81
2022/05/25 04:05:22;;;;;;;15.37;14.00;;;;;;;16.73;82.90;92859.56;5025668;28;20261;-80
2022/05/25 04:07:48;;;;;;;18.17;16.40;;;;;;;16.50;84.42;92858.88;5027525;28;21049;-80
2022/05/25 04:10:17;;;;;;;21.87;15.70;;;;;;;17.11;81.43;92861.25;5027656;28;20195;-78
2022/05/25 04:12:44;;;;;;;17.47;15.77;;;;;;;17.32;79.77;92851.59;5028248;28;20171;-77
2022/05/25 04:15:12;;;;;;;17.40;15.67;;;;;;;17.80;77.91;92861.13;5027140;28;20191;-76
2022/05/25 04:17:37;;;;;;;18.00;16.40;;;;;;;17.48;80.30;92862.47;5028118;28;20315;-78
2022/05/25 04:20:04;;;;;;;18.10;16.30;;;;;;;17.43;79.86;92863.38;5026468;28;20218;-78
2022/05/25 04:22:32;;;;;;;18.10;16.13;;;;;;;17.83;78.61;92858.66;5026978;28;20191;-82
2022/05/25 04:24:59;;;;;;;18.60;16.60;;;;;;;18.37;76.13;92870.19;5028031;28;20182;-78
2022/05/25 04:27:25;;;;;;;19.43;17.43;;;;;;;18.32;75.34;92859.84;5027087;28;20186;-75
2022/05/25 04:29:51;;;;;;;19.10;17.23;;;;;;;18.31;75.70;92855.63;5028105;28;20195;-78
2022/05/25 04:32:16;;;;;;;18.63;16.73;;;;;;;18.37;75.33;92852.47;5026926;28;20274;-78
2022/05/25 04:34:42;;;;;;;25.63;17.63;;;;;;;18.47;75.05;92860.09;5026184;28;20210;-78
2022/05/25 04:39:51;;;;;;;24.73;18.53;;;;;;;18.09;76.49;92855.88;5026650;28;20196;-81
2022/05/25 04:42:17;;;;;;;20.47;18.33;;;;;;;18.08;77.38;92868.34;5024462;28;20227;-79
2022/05/25 04:44:42;;;;;;;18.53;16.90;;;;;;;18.64;74.92;92872.41;5027514;28;20246;-79
2022/05/25 04:47:08;;;;;;;17.60;16.00;;;;;;;18.52;75.14;92888.97;5025378;28;20238;-81
2022/05/25 04:49:35;;;;;;;19.17;17.17;;;;;;;18.77;75.03;92884.63;5026330;28;20202;-79
2022/05/25 04:52:00;;;;;;;20.73;18.70;;;;;;;18.63;75.85;92878.81;5025329;28;20227;-79
2022/05/25 04:54:26;;;;;;;17.60;15.97;;;;;;;17.81;78.00;92838.91;5026312;28;20867;-79
2022/05/25 04:59:35;;;;;;;18.97;17.27;;;;;;;18.02;77.48;92810.69;5027438;28;20213;-79
2022/05/25 05:02:01;;;;;;;19.27;17.13;;;;;;;18.78;75.50;92868.44;5026831;28;20238;-79
2022/05/25 05:04:27;;;;;;;18.27;16.50;;;;;;;19.29;73.00;92872.56;5027093;28;20179;-76
2022/05/25 05:06:53;;;;;;;18.40;16.70;;;;;;;19.31;73.04;92851.84;5026580;28;20241;-76
2022/05/25 05:09:18;;;;;;;18.57;16.70;;;;;;;19.69;70.85;92872.81;5027439;28;20181;-75
2022/05/25 05:11:45;;;;;;;18.20;16.50;;;;;;;19.52;71.73;92873.75;5027312;28;20303;-75
2022/05/25 05:14:10;;;;;;;18.57;16.67;;;;;;;19.52;71.71;92880.94;5026550;28;20202;-75
2022/05/25 05:16:36;;;;;;;18.13;16.27;;;;;;;19.21;73.33;92877.94;5027460;28;20269;-75
2022/05/25 05:19:02;;;;;;;18.33;16.60;;;;;;;19.39;72.86;92895.22;5028528;28;20207;-75
2022/05/25 05:21:27;;;;;;;19.17;17.40;;;;;;;19.50;72.22;92878.63;5028626;28;20239;-74
2022/05/25 05:23:53;;;;;;;17.90;16.20;;;;;;;19.78;70.58;92847.75;5027331;28;20249;-74
2022/05/25 05:26:18;;;;;;;18.50;16.80;;;;;;;21.49;66.09;92890.56;5027676;28;20231;-75
2022/05/25 05:28:45;;;;;;;18.30;16.53;;;;;;;22.42;59.98;92900.56;5024082;28;20261;-75
2022/05/25 05:31:11;;;;;;;19.63;16.17;;;;;;;23.05;58.90;92912.72;5027802;28;20287;-75
2022/05/25 05:33:36;;;;;;;17.33;15.77;;;;;;;23.77;56.64;92889.88;5028248;28;20198;-75
2022/05/25 05:36:10;;;;;;;18.95;16.95;;;;;;;23.36;57.66;92913.41;5026536;28;20237;-75
2022/05/25 05:38:42;;;;;;;16.58;15.18;;;;;;;23.59;56.73;92916.97;5026516;28;20186;-76
2022/05/25 05:41:09;;;;;;;16.50;14.80;;;;;;;23.30;57.40;92914.06;5027841;28;20240;-74
2022/05/25 05:43:37;;;;;;;18.05;16.08;;;;;;;25.31;51.50;92913.78;5028453;28;20201;-76
2022/05/25 05:46:03;;;;;;;16.88;15.07;;;;;;;27.25;46.65;92932.63;5027878;28;20226;-75
2022/05/25 05:48:30;;;;;;;15.75;14.20;;;;;;;29.67;40.24;92942.06;5027976;28;20221;-75
2022/05/25 05:50:56;;;;;;;14.55;13.15;;;;;;;29.61;40.45;92950.88;5028407;28;20246;-75
2022/05/25 05:53:24;;;;;;;15.65;14.00;;;;;;;30.47;38.06;92944.81;5029355;28;20191;-74
2022/05/25 05:55:50;;;;;;;14.85;13.20;;;;;;;30.56;37.58;92955.91;5027990;28;20230;-72
2022/05/25 05:58:16;;;;;;;13.90;12.85;;;;;;;31.74;35.19;92945.34;5027577;28;20186;-73
2022/05/25 06:00:41;;;;;;;14.00;12.40;;;;;;;31.56;36.40;92963.69;5028469;28;20241;-73
2022/05/25 06:03:07;;;;;;;14.45;13.02;;;;;;;32.91;33.76;92958.22;5029374;28;20236;-72
2022/05/25 06:05:33;;;;;;;13.43;12.15;;;;;;;31.82;34.52;92954.16;5030122;28;20236;-73
2022/05/25 06:08:11;;;;;;;14.32;13.00;;;;;;;32.49;33.12;92949.53;5032607;28;20190;-73
2022/05/25 06:10:38;;;;;;;14.13;12.93;;;;;;;32.09;33.76;92955.81;5030274;28;20226;-75
2022/05/25 06:13:04;;;;;;;14.18;12.77;;;;;;;31.13;35.63;92940.94;5032407;28;20194;-74
2022/05/25 06:20:57;;;;;;;13.85;12.52;;;;;;;33.68;31.09;92965.13;5030585;28;20332;-73
2022/05/25 06:23:23;;;;;;;14.27;12.90;;;;;;;32.46;33.05;92965.78;5031905;28;20591;-75
2022/05/25 06:25:48;;;;;;;14.20;12.80;;;;;;;34.13;30.62;92960.81;5029944;28;20246;-75
2022/05/25 06:28:14;;;;;;;13.75;12.32;;;;;;;34.33;30.64;92966.22;5031270;28;20183;-74
2022/05/25 06:30:39;;;;;;;13.55;12.25;;;;;;;32.23;33.32;92974.56;5030416;28;20231;-74
2022/05/25 06:33:05;;;;;;;13.20;11.90;;;;;;;32.97;32.22;92979.00;5032295;28;20198;-74
2022/05/25 06:35:32;;;;;;;14.25;12.85;;;;;;;31.53;34.75;92951.00;5030775;28;20263;-75
2022/05/25 06:37:58;;;;;;;13.15;11.95;;;;;;;32.70;33.10;92970.13;5029966;28;20199;-74
2022/05/25 06:40:23;;;;;;;14.02;12.65;;;;;;;30.61;36.05;92952.81;5030804;28;20261;-75
2022/05/25 06:42:51;;;;;;;13.88;12.48;;;;;;;27.17;43.54;92964.00;5030818;28;20279;-75
2022/05/25 06:45:17;;;;;;;14.65;12.55;;;;;;;25.79;47.58;92950.34;5030435;28;20232;-74
2022/05/25 06:47:43;;;;;;;13.57;12.43;;;;;;;24.93;49.76;92951.41;5031668;28;20191;-74
2022/05/25 06:50:09;;;;;;;14.80;13.50;;;;;;;23.73;53.04;92948.47;5030056;28;20209;-74
2022/05/25 06:52:35;;;;;;;14.07;12.80;;;;;;;22.48;56.91;92920.47;5030941;28;20197;-74
2022/05/25 06:55:00;;;;;;;15.02;13.55;;;;;;;23.39;55.73;92938.63;5029894;28;20198;-74
2022/05/25 06:57:26;;;;;;;14.48;13.18;;;;;;;23.21;56.42;92938.19;5031737;28;20245;-74
2022/05/25 06:59:52;;;;;;;16.73;13.88;;;;;;;22.79;57.53;92915.94;5030027;28;20270;-74
2022/05/25 07:02:17;;;;;;;13.88;12.73;;;;;;;22.13;60.62;92931.03;5029544;28;20240;-74
2022/05/25 07:04:43;;;;;;;15.10;13.70;;;;;;;22.47;59.91;92919.72;5031538;28;20194;-74
2022/05/25 07:07:08;;;;;;;14.48;13.13;;;;;;;21.85;61.81;92935.63;5028897;28;20232;-74
2022/05/25 07:09:37;;;;;;;15.13;13.75;;;;;;;22.61;59.72;92951.25;5030519;28;20248;-74
2022/05/25 07:12:03;;;;;;;16.23;14.52;;;;;;;22.03;61.27;92931.53;5029600;28;20225;-74
2022/05/25 07:14:28;;;;;;;13.98;12.80;;;;;;;22.29;62.63;92961.06;5030935;28;21037;-74
2022/05/25 07:16:55;;;;;;;14.18;12.80;;;;;;;22.40;61.67;92940.84;5029867;28;20244;-74
2022/05/25 07:19:20;;;;;;;15.43;13.93;;;;;;;22.68;59.47;92952.19;5028148;28;20215;-74
2022/05/25 07:21:46;;;;;;;15.88;13.68;;;;;;;22.42;61.12;92970.53;5030487;28;20237;-74
2022/05/25 07:24:11;;;;;;;14.43;13.13;;;;;;;22.12;63.66;92972.03;5028030;28;20204;-74
2022/05/25 07:26:37;;;;;;;15.85;14.40;;;;;;;21.87;62.10;92970.59;5029698;28;20233;-74
2022/05/25 07:29:02;;;;;;;20.05;18.45;;;;;;;21.50;64.40;92966.47;5028057;28;20191;-75
2022/05/25 07:31:35;;;;;;;16.45;14.88;;;;;;;21.41;65.23;92947.25;5029863;28;20265;-74
2022/05/25 07:34:14;;;;;;;17.23;15.13;;;;;;;21.82;65.83;92970.84;5029765;28;20186;-74
2022/05/25 07:36:41;;;;;;;17.73;13.32;;;;;;;22.32;61.84;92970.28;5027929;28;20221;-74
2022/05/25 07:39:11;;;;;;;16.13;12.88;;;;;;;22.64;58.74;92972.66;5030328;28;20201;-74
2022/05/25 07:41:40;;;;;;;14.93;13.43;;;;;;;22.29;62.11;92966.41;5029629;28;20274;-74
2022/05/25 07:44:10;;;;;;;13.80;12.70;;;;;;;22.78;59.62;92967.66;5029639;28;20203;-75
2022/05/25 07:46:36;;;;;;;14.75;13.00;;;;;;;22.80;58.14;92948.69;5028087;28;20223;-74
2022/05/25 07:49:01;;;;;;;13.80;12.60;;;;;;;22.87;59.52;92943.50;5030478;28;20189;-74
2022/05/25 07:51:27;;;;;;;14.38;12.93;;;;;;;22.68;60.17;92957.53;5029673;28;20229;-73
2022/05/25 07:53:56;;;;;;;13.93;12.70;;;;;;;23.06;60.31;92935.56;5028006;28;20219;-74
2022/05/25 07:56:26;;;;;;;13.40;12.20;;;;;;;23.00;57.33;92927.09;5028149;28;20226;-75
2022/05/25 07:58:51;;;;;;;12.48;11.55;;;;;;;22.96;57.37;92952.84;5028730;28;20247;-74
2022/05/25 08:05:43;;;;;;;13.38;12.27;;;;;;;23.00;57.09;92944.97;5028323;28;20232;-74
2022/05/25 08:06:51;;;;;;;13.88;12.77;;;;;;;23.20;57.49;92922.56;5029420;28;20233;-74
2022/05/25 08:09:17;;;;;;;12.00;11.07;;;;;;;22.83;57.60;92927.47;5030406;28;20190;-75
2022/05/25 08:11:43;;;;;;;13.60;12.27;;;;;;;22.67;59.44;92948.00;5029132;28;20214;-74
2022/05/25 08:14:09;;;;;;;14.55;12.52;;;;;;;22.68;58.25;92954.09;5029527;28;20196;-74
2022/05/25 08:16:34;;;;;;;12.98;11.70;;;;;;;22.69;59.31;92950.31;5029065;28;20235;-74
2022/05/25 08:19:00;;;;;;;13.70;12.32;;;;;;;23.11;58.63;92962.72;5028810;28;20197;-74
2022/05/25 08:21:25;;;;;;;13.00;11.88;;;;;;;23.31;57.26;92936.91;5029439;28;20238;-74
2022/05/25 08:23:51;;;;;;;13.52;11.80;;;;;;;23.60;56.36;92947.81;5028631;28;20211;-73
2022/05/25 08:26:16;;;;;;;12.90;11.80;;;;;;;23.69;56.44;92958.25;5027678;28;20228;-74
2022/05/25 08:28:42;;;;;;;12.25;11.35;;;;;;;23.77;57.41;92959.19;5029625;28;20198;-74
2022/05/25 08:31:07;;;;;;;13.70;12.50;;;;;;;23.92;54.32;92955.69;5028242;28;20225;-74
2022/05/25 08:33:33;;;;;;;12.63;11.63;;;;;;;23.84;55.47;92938.00;5030117;28;20249;-73
2022/05/25 08:36:00;;;;;;;12.63;11.35;;;;;;;23.95;56.51;92949.63;5029636;28;20291;-74
2022/05/25 08:38:26;;;;;;;13.75;11.55;;;;;;;23.92;55.95;92945.00;5029090;28;20199;-73
2022/05/25 08:40:52;;;;;;;13.15;11.90;;;;;;;24.09;55.75;92963.28;5028665;28;20238;-74
2022/05/25 08:43:36;;;;;;;12.32;11.32;;;;;;;23.94;55.53;92969.44;5028898;28;20203;-75
2022/05/25 08:46:06;;;;;;;15.07;12.20;;;;;;;23.96;55.35;92957.31;5028694;28;20306;-73
2022/05/25 08:48:33;;;;;;;14.38;11.85;;;;;;;23.89;55.21;92983.84;5029057;28;20263;-74
2022/05/25 08:51:06;;;;;;;13.10;11.88;;;;;;;23.63;55.92;92989.00;5027615;28;20230;-74
2022/05/25 08:53:33;;;;;;;13.75;12.40;;;;;;;23.42;57.08;92981.34;5028547;28;20190;-74
2022/05/25 08:56:06;;;;;;;13.00;12.00;;;;;;;23.95;53.38;92997.66;5029137;28;20233;-74
2022/05/25 08:58:46;;;;;;;13.55;12.20;;;;;;;24.16;53.65;92998.09;5027260;28;20197;-74
2022/05/25 09:01:30;;;;;;;12.38;11.27;;;;;;;24.23;53.00;92992.91;5028451;28;20231;-74
2022/05/25 09:04:12;;;;;;;12.43;11.20;;;;;;;23.87;56.03;92982.63;5028723;28;20201;-72
2022/05/25 09:07:01;;;;;;;12.48;11.25;;;;;;;23.30;56.30;92978.03;5026873;28;20236;-74
2022/05/25 09:09:38;;;;;;;13.63;12.27;;;;;;;23.80;56.26;92969.16;5027986;28;20256;-74
2022/05/25 09:12:32;;;;;;;12.25;11.30;;;;;;;24.62;53.27;92975.69;5027071;28;20241;-74
2022/05/25 09:15:18;;;;;;;13.40;12.30;;;;;;;23.61;54.17;92967.28;5027609;28;20196;-74
2022/05/25 09:18:02;;;;;;;12.48;11.38;;;;;;;24.05;54.75;92986.47;5027865;28;20271;-74
2022/05/25 09:20:35;;;;;;;13.45;12.25;;;;;;;24.43;54.35;92986.41;5028216;28;20285;-73
2022/05/25 09:23:01;;;;;;;12.52;11.45;;;;;;;24.81;52.56;92991.69;5029551;28;20193;-74
2022/05/25 09:25:27;;;;;;;17.33;11.38;;;;;;;24.94;55.04;92998.38;5026244;28;20240;-75
2022/05/25 09:28:00;;;;;;;13.13;11.90;;;;;;;24.70;52.76;92998.75;5027677;28;20205;-74
2022/05/25 09:30:27;;;;;;;12.75;11.52;;;;;;;24.19;54.04;92987.50;5027852;28;20229;-73
2022/05/25 09:33:10;;;;;;;16.33;11.43;;;;;;;24.34;53.43;92983.19;5027739;28;20193;-74
2022/05/25 09:35:44;;;;;;;13.20;11.90;;;;;;;24.61;53.32;92993.59;5026812;28;20232;-74
2022/05/25 09:38:14;;;;;;;12.40;11.23;;;;;;;24.58;53.22;92999.66;5026859;28;20270;-74
2022/05/25 09:41:04;;;;;;;11.75;10.75;;;;;;;24.70;52.36;93002.16;5031156;28;20252;-74
2022/05/25 09:43:31;;;;;;;13.52;12.32;;;;;;;24.84;50.83;92985.63;5027535;28;20209;-75
2022/05/25 09:46:03;;;;;;;12.35;11.15;;;;;;;24.10;53.85;92994.94;5031687;28;20267;-74
2022/05/25 09:48:49;;;;;;;14.43;13.02;;;;;;;24.88;51.75;92995.22;5030393;28;20210;-74
2022/05/25 09:51:25;;;;;;;14.10;12.88;;;;;;;24.95;51.83;92968.63;5031431;28;20267;-74
2022/05/25 09:54:00;;;;;;;12.85;11.77;;;;;;;25.12;50.88;92981.47;5032463;28;20204;-74
2022/05/25 09:56:32;;;;;;;13.10;11.93;;;;;;;25.24;50.59;92977.84;5030657;28;20244;-74
2022/05/25 09:59:04;;;;;;;12.93;11.13;;;;;;;25.25;50.64;92982.06;5032496;28;20193;-74
2022/05/25 10:01:32;;;;;;;14.02;12.70;;;;;;;25.32;52.99;92979.50;5031534;28;20242;-74
2022/05/25 10:03:59;;;;;;;12.45;11.25;;;;;;;25.57;53.24;92969.94;5032090;28;20201;-74
2022/05/25 10:06:48;;;;;;;14.40;11.77;;;;;;;25.82;49.37;92959.56;5030978;28;21025;-74
2022/05/25 10:09:24;;;;;;;12.45;11.38;;;;;;;25.85;51.37;92956.94;5031204;28;20186;-74
2022/05/25 10:11:49;;;;;;;12.02;11.02;;;;;;;25.90;49.32;92956.59;5031214;28;20236;-74
2022/05/25 10:14:26;;;;;;;12.40;10.77;;;;;;;26.00;50.64;92961.34;5031042;28;20251;-74
2022/05/25 10:16:54;;;;;;;11.55;10.55;;;;;;;26.11;51.13;92950.75;5031336;28;20241;-74
2022/05/25 10:19:21;;;;;;;11.45;10.35;;;;;;;26.23;48.08;92958.50;5030886;28;20194;-74
2022/05/25 10:21:58;;;;;;;12.52;11.43;;;;;;;26.36;49.60;92963.25;5030384;28;20772;-74
2022/05/25 10:24:41;;;;;;;12.32;11.23;;;;;;;26.27;49.91;92964.69;5031011;28;20186;-73
2022/05/25 10:27:22;;;;;;;12.65;11.50;;;;;;;26.29;47.86;92962.44;5030820;28;20229;-74
2022/05/25 10:38:12;;;;;;;11.18;10.18;;;;;;;26.03;49.85;92960.59;5031460;28;20204;-74
2022/05/25 10:40:44;;;;;;;12.20;10.40;;;;;;;26.25;50.10;92962.38;5029339;28;20242;-74
2022/05/25 10:43:16;;;;;;;11.95;10.90;;;;;;;26.56;49.80;92953.91;5029947;28;20285;-73
2022/05/25 10:45:47;;;;;;;11.68;10.50;;;;;;;26.65;49.51;92951.72;5029409;28;20294;-74
2022/05/25 10:48:45;;;;;;;12.23;11.15;;;;;;;26.76;48.39;92954.47;5029195;28;20313;-74
2022/05/25 10:51:19;;;;;;;11.20;10.13;;;;;;;26.84;48.16;92945.34;5029467;28;20226;-74
2022/05/25 10:57:09;;;;;;;13.02;11.63;;;;;;;26.87;48.50;92933.91;5030719;28;20240;-74
2022/05/25 11:00:00;;;;;;;12.93;11.57;;;;;;;26.76;48.45;92930.34;5029868;28;20193;-74
2022/05/25 11:02:28;;;;;;;13.10;10.85;;;;;;;26.81;48.45;92939.97;5030535;28;20234;-74
2022/05/25 11:05:11;;;;;;;12.13;11.20;;;;;;;26.79;49.29;92936.91;5031748;28;20201;-74
2022/05/25 11:07:37;;;;;;;11.95;10.85;;;;;;;27.12;47.21;92928.69;5030580;28;20230;-74
2022/05/25 11:10:18;;;;;;;11.65;10.60;;;;;;;27.31;46.55;92923.13;5030143;28;20187;-74
2022/05/25 11:13:02;;;;;;;13.80;10.40;;;;;;;27.37;45.62;92926.97;5030376;28;20265;-74
2022/05/25 11:15:28;;;;;;;16.58;10.80;;;;;;;27.14;46.36;92921.06;5027544;28;20277;-74
2022/05/25 11:18:05;;;;;;;12.02;10.68;;;;;;;27.21;46.15;92921.88;5031124;28;20194;-74
2022/05/25 11:20:43;;;;;;;13.02;11.55;;;;;;;27.43;46.19;92922.78;5030339;28;20226;-74
2022/05/25 11:23:34;;;;;;;12.93;11.82;;;;;;;27.56;43.99;92924.03;5029711;28;20281;-73
2022/05/25 11:26:23;;;;;;;10.77;10.00;;;;;;;27.17;45.95;92915.72;5029216;28;20246;-75
2022/05/25 11:29:00;;;;;;;11.68;10.60;;;;;;;27.53;46.09;92920.19;5001707;28;20199;-74
2022/05/25 11:31:32;;;;;;;12.98;11.80;;;;;;;27.71;44.80;92915.66;5030035;28;20229;-81
2022/05/25 11:34:16;;;;;;;13.15;11.88;;;;;;;27.74;43.84;92914.13;5031296;28;20187;-80
2022/05/25 11:37:19;;;;;;;15.10;11.32;;;;;;;27.81;45.56;92923.00;5030441;28;20276;-80
2022/05/25 11:40:06;;;;;;;11.80;10.63;;;;;;;27.84;43.47;92921.47;5029262;28;20209;-81
2022/05/25 11:42:37;;;;;;;11.68;10.70;;;;;;;27.73;42.68;92926.03;5030512;28;20214;-80
2022/05/25 11:45:29;;;;;;;11.60;10.68;;;;;;;27.49;43.29;92899.84;5029614;28;20210;-80
2022/05/25 11:48:15;;;;;;;13.88;10.77;;;;;;;27.60;44.76;92909.47;5030198;28;20187;-80
2022/05/25 11:50:58;;;;;;;12.18;11.18;;;;;;;27.69;44.59;92915.25;5030603;28;20507;-80
2022/05/25 11:53:27;;;;;;;11.73;10.55;;;;;;;27.91;41.72;92911.56;5029785;28;20187;-81
2022/05/25 11:56:05;;;;;;;10.68;9.82;;;;;;;27.64;38.74;92850.47;5029849;28;20264;-80
2022/05/25 11:58:52;;;;;;;10.23;9.05;;;;;;;28.28;40.89;92903.22;5030094;28;20178;-80
2022/05/25 12:01:25;;;;;;;11.13;9.70;;;;;;;28.12;39.78;92851.78;5052474;28;20238;-80
2022/05/25 12:04:05;;;;;;;9.85;9.10;;;;;;;28.56;35.45;92889.88;5029916;28;20179;-80
2022/05/25 12:06:59;;;;;;;11.30;10.18;;;;;;;28.71;35.73;92883.34;5028615;28;20238;-80